createdAt,value
2022-11-03T00:01:08.793Z,15.09
2022-11-03T00:03:35.356Z,15.09
2022-11-03T00:06:05.072Z,15.13
2022-11-03T00:08:41.804Z,15.04
2022-11-03T00:11:10.023Z,15.04
2022-11-03T00:13:37.404Z,15.03
2022-11-03T00:16:04.574Z,14.99
2022-11-03T00:18:31.111Z,15.02
2022-11-03T00:20:58.271Z,14.97
2022-11-03T00:23:25.640Z,15.05
2022-11-03T00:25:52.188Z,15.07
2022-11-03T00:28:18.708Z,15.02
2022-11-03T00:30:45.127Z,14.98
2022-11-03T00:33:11.580Z,15.04
2022-11-03T00:35:38.180Z,15.01
2022-11-03T00:38:04.691Z,14.99
2022-11-03T00:40:31.228Z,14.97
2022-11-03T00:42:57.733Z,14.94
2022-11-03T00:45:24.229Z,14.99
2022-11-03T00:48:09.196Z,14.98
2022-11-03T00:50:35.639Z,14.99
2022-11-03T00:53:02.085Z,14.97
2022-11-03T00:55:28.485Z,15.07
2022-11-03T00:57:55.016Z,15.00
2022-11-03T01:00:21.502Z,15.03
2022-11-03T01:02:47.956Z,15.03
2022-11-03T01:05:33.025Z,15.03
2022-11-03T01:10:30.884Z,15.07
2022-11-03T01:12:57.333Z,15.04
2022-11-03T01:15:23.731Z,15.07
2022-11-03T01:17:50.234Z,15.11
2022-11-03T01:20:16.670Z,15.03
2022-11-03T01:22:43.261Z,15.03
2022-11-03T01:25:09.709Z,15.18
2022-11-03T01:27:36.375Z,15.14
2022-11-03T01:30:02.887Z,15.43
2022-11-03T01:32:29.358Z,15.14
2022-11-03T01:34:55.832Z,15.07
2022-11-03T01:37:22.417Z,14.99
2022-11-03T01:39:48.904Z,15.05
2022-11-03T01:42:15.364Z,15.03
2022-11-03T01:44:48.665Z,15.07
2022-11-03T01:47:19.292Z,15.11
2022-11-03T01:49:50.314Z,15.05
2022-11-03T01:52:16.749Z,14.98
2022-11-03T01:54:44.441Z,15.14
2022-11-03T01:57:13.825Z,15.09
2022-11-03T01:59:40.936Z,15.35
2022-11-03T02:02:07.864Z,15.17
2022-11-03T02:04:34.979Z,15.28
2022-11-03T02:07:24.693Z,15.17
2022-11-03T02:09:51.183Z,15.25
2022-11-03T02:12:19.941Z,15.21
2022-11-03T02:14:52.099Z,15.15
2022-11-03T02:17:19.980Z,15.11
2022-11-03T02:19:49.864Z,15.04
2022-11-03T02:22:19.328Z,15.11
2022-11-03T02:25:04.538Z,15.10
2022-11-03T02:27:31.012Z,15.11
2022-11-03T02:29:58.927Z,15.02
2022-11-03T02:32:28.660Z,15.11
2022-11-03T02:35:14.056Z,15.02
2022-11-03T02:37:46.249Z,14.96
2022-11-03T02:40:14.760Z,14.90
2022-11-03T02:42:43.166Z,14.78
2022-11-03T02:45:14.766Z,14.73
2022-11-03T02:47:44.581Z,14.75
2022-11-03T02:50:11.034Z,14.73
2022-11-03T02:52:37.521Z,14.38
2022-11-03T02:55:09.266Z,14.34
2022-11-03T02:57:38.309Z,14.40
2022-11-03T03:00:07.117Z,14.39
2022-11-03T03:02:37.882Z,14.30
2022-11-03T03:05:08.785Z,14.32
2022-11-03T03:07:37.747Z,14.29
2022-11-03T03:10:24.447Z,14.19
2022-11-03T03:12:51.964Z,14.06
2022-11-03T03:15:19.701Z,14.08
2022-11-03T03:18:10.882Z,13.98
2022-11-03T03:20:41.736Z,13.93
2022-11-03T03:23:18.862Z,13.83
2022-11-03T03:25:57.619Z,13.99
2022-11-03T03:28:26.769Z,13.93
2022-11-03T03:30:55.590Z,14.02
2022-11-03T03:33:22.714Z,13.92
2022-11-03T03:35:50.469Z,13.93
2022-11-03T03:38:20.607Z,13.80
2022-11-03T03:40:48.494Z,13.82
2022-11-03T03:43:15.098Z,13.76
2022-11-03T03:45:43.044Z,13.86
2022-11-03T03:48:09.765Z,13.89
2022-11-03T03:50:38.458Z,13.88
2022-11-03T03:53:06.306Z,14.03
2022-11-03T03:55:40.581Z,14.11
2022-11-03T03:58:08.155Z,14.10
2022-11-03T04:00:34.935Z,14.18
2022-11-03T04:03:01.460Z,14.13
2022-11-03T04:05:28.007Z,14.05
2022-11-03T04:07:54.524Z,13.97
2022-11-03T04:10:21.915Z,13.93
2022-11-03T04:13:07.032Z,13.93
2022-11-03T04:15:51.906Z,13.99
2022-11-03T04:18:38.252Z,14.00
2022-11-03T04:21:24.051Z,14.12
2022-11-03T04:23:50.893Z,14.02
2022-11-03T04:26:18.764Z,13.77
2022-11-03T04:28:45.585Z,13.81
2022-11-03T04:31:16.472Z,13.84
2022-11-03T04:33:43.285Z,13.78
2022-11-03T04:36:18.897Z,13.81
2022-11-03T04:38:45.671Z,13.92
2022-11-03T04:41:32.900Z,13.82
2022-11-03T04:43:59.482Z,13.97
2022-11-03T04:46:27.616Z,13.95
2022-11-03T04:48:55.139Z,13.81
2022-11-03T04:51:24.471Z,13.97
2022-11-03T04:53:54.183Z,14.03
2022-11-03T04:56:22.068Z,14.08
2022-11-03T04:58:48.726Z,14.01
2022-11-03T05:01:23.433Z,13.99
2022-11-03T05:03:53.585Z,13.97
2022-11-03T05:06:21.575Z,13.95
2022-11-03T05:08:50.844Z,14.01
2022-11-03T05:11:35.130Z,13.95
2022-11-03T05:14:04.296Z,13.96
2022-11-03T05:16:31.359Z,13.84
2022-11-03T05:18:58.019Z,13.89
2022-11-03T05:21:26.921Z,13.87
2022-11-03T05:23:56.180Z,13.78
2022-11-03T05:26:24.472Z,13.53
2022-11-03T05:28:52.838Z,13.73
2022-11-03T05:31:22.441Z,13.76
2022-11-03T05:33:49.896Z,13.77
2022-11-03T05:36:19.124Z,13.61
2022-11-03T05:38:45.669Z,13.65
2022-11-03T05:41:15.268Z,13.68
2022-11-03T05:43:41.753Z,13.51
2022-11-03T05:46:10.129Z,13.39
2022-11-03T05:48:41.240Z,13.59
2022-11-03T05:51:15.460Z,13.73
2022-11-03T05:53:45.163Z,13.58
2022-11-03T05:56:16.212Z,13.20
2022-11-03T05:58:43.212Z,13.25
2022-11-03T06:01:15.321Z,13.10
2022-11-03T06:03:41.961Z,13.18
2022-11-03T06:06:15.671Z,13.12
2022-11-03T06:08:44.956Z,13.12
2022-11-03T06:11:27.282Z,13.17
2022-11-03T06:13:55.386Z,12.98
2022-11-03T06:16:21.831Z,12.95
2022-11-03T06:18:48.318Z,13.01
2022-11-03T06:21:21.583Z,13.20
2022-11-03T06:23:48.338Z,13.30
2022-11-03T06:26:18.515Z,13.24
2022-11-03T06:28:45.205Z,13.36
2022-11-03T06:31:21.903Z,13.16
2022-11-03T06:33:50.311Z,13.36
2022-11-03T06:36:19.709Z,13.46
2022-11-03T06:38:49.093Z,13.41
2022-11-03T06:41:20.732Z,13.37
2022-11-03T06:43:47.164Z,13.45
2022-11-03T06:46:23.875Z,13.46
2022-11-03T06:48:52.014Z,13.59
2022-11-03T06:51:28.623Z,13.62
2022-11-03T06:53:57.584Z,13.70
2022-11-03T06:56:25.960Z,13.68
2022-11-03T06:58:53.540Z,13.37
2022-11-03T07:01:22.100Z,13.58
2022-11-03T07:03:53.006Z,13.90
2022-11-03T07:06:21.562Z,13.92
2022-11-03T07:08:49.648Z,14.10
2022-11-03T07:11:18.957Z,14.31
2022-11-03T07:13:46.293Z,14.59
2022-11-03T07:16:32.975Z,14.65
2022-11-03T07:19:00.833Z,14.58
2022-11-03T07:21:30.322Z,14.43
2022-11-03T07:23:57.761Z,14.29
2022-11-03T07:26:24.212Z,14.49
2022-11-03T07:28:51.117Z,14.88
2022-11-03T07:31:22.429Z,14.74
2022-11-03T07:33:49.487Z,14.62
2022-11-03T07:36:19.244Z,14.70
2022-11-03T07:38:47.323Z,14.97
2022-11-03T07:41:18.324Z,14.57
2022-11-03T07:43:49.385Z,14.71
2022-11-03T07:46:20.129Z,14.76
2022-11-03T07:48:48.181Z,15.06
2022-11-03T07:51:22.619Z,15.24
2022-11-03T07:53:51.265Z,15.53
2022-11-03T07:56:25.971Z,15.73
2022-11-03T07:58:58.807Z,15.78
2022-11-03T08:01:26.902Z,16.36
2022-11-03T08:03:56.270Z,16.44
2022-11-03T08:06:22.784Z,16.59
2022-11-03T08:08:49.330Z,16.43
2022-11-03T08:11:15.866Z,16.24
2022-11-03T08:13:42.331Z,16.43
2022-11-03T08:16:08.816Z,15.84
2022-11-03T08:18:36.960Z,16.09
2022-11-03T08:21:03.672Z,16.21
2022-11-03T08:23:30.400Z,16.29
2022-11-03T08:25:57.122Z,16.53
2022-11-03T08:28:23.643Z,16.90
2022-11-03T08:30:50.108Z,16.66
2022-11-03T08:33:16.748Z,17.20
2022-11-03T08:35:43.645Z,17.87
2022-11-03T08:38:10.373Z,17.49
2022-11-03T08:40:36.955Z,17.12
2022-11-03T08:43:04.109Z,17.45
2022-11-03T08:45:30.629Z,17.52
2022-11-03T08:47:57.178Z,17.03
2022-11-03T08:50:23.879Z,17.38
2022-11-03T08:52:50.399Z,17.70
2022-11-03T08:55:16.906Z,17.68
2022-11-03T08:57:43.340Z,17.34
2022-11-03T09:00:10.192Z,16.96
2022-11-03T09:02:36.729Z,16.78
2022-11-03T09:05:04.576Z,17.18
2022-11-03T09:12:44.189Z,16.26
2022-11-03T09:15:10.802Z,16.17
2022-11-03T09:17:39.455Z,16.41
2022-11-03T09:20:09.733Z,16.36
2022-11-03T09:22:36.373Z,16.72
2022-11-03T09:25:03.601Z,17.00
2022-11-03T09:27:30.127Z,17.12
2022-11-03T09:30:12.191Z,16.70
2022-11-03T09:32:39.676Z,16.38
2022-11-03T09:35:06.407Z,16.45
2022-11-03T09:37:32.853Z,16.70
2022-11-03T09:39:59.514Z,16.13
2022-11-03T09:42:26.410Z,16.37
2022-11-03T09:44:54.473Z,16.55
2022-11-03T09:47:27.724Z,17.57
2022-11-03T09:49:54.304Z,16.74
2022-11-03T09:52:22.281Z,16.65
2022-11-03T09:54:49.365Z,16.70
2022-11-03T09:57:16.322Z,16.44
2022-11-03T09:59:44.118Z,15.76
2022-11-03T10:02:21.855Z,16.04
2022-11-03T10:04:48.891Z,16.10
2022-11-03T10:07:15.416Z,16.17
2022-11-03T10:09:45.520Z,16.38
2022-11-03T10:12:12.272Z,16.77
2022-11-03T10:14:39.541Z,17.29
2022-11-03T10:17:06.504Z,17.72
2022-11-03T10:19:33.039Z,17.30
2022-11-03T10:21:59.538Z,17.12
2022-11-03T10:24:26.012Z,16.96
2022-11-03T10:26:54.707Z,17.00
2022-11-03T10:29:28.542Z,17.75
2022-11-03T10:31:58.603Z,17.78
2022-11-03T10:34:36.484Z,17.60
2022-11-03T10:37:10.652Z,17.25
2022-11-03T10:39:37.583Z,17.49
2022-11-03T10:42:04.279Z,17.46
2022-11-03T10:44:30.950Z,17.02
2022-11-03T10:46:59.460Z,17.17
2022-11-03T10:49:27.388Z,16.91
2022-11-03T10:51:54.910Z,16.79
2022-11-03T10:54:23.074Z,16.86
2022-11-03T10:56:51.195Z,16.78
2022-11-03T10:59:19.375Z,16.43
2022-11-03T11:01:46.072Z,16.65
2022-11-03T11:04:16.930Z,16.80
2022-11-03T11:06:43.898Z,16.88
2022-11-03T11:09:12.401Z,17.62
2022-11-03T11:11:39.133Z,17.46
2022-11-03T11:14:36.796Z,17.39
2022-11-03T11:17:04.015Z,17.24
2022-11-03T11:19:30.976Z,17.34
2022-11-03T11:21:58.818Z,17.42
2022-11-03T11:24:43.778Z,18.77
2022-11-03T11:27:33.465Z,18.66
2022-11-03T11:30:00.690Z,18.63
2022-11-03T11:32:39.439Z,18.39
2022-11-03T11:35:09.874Z,17.90
2022-11-03T11:37:37.102Z,17.93
2022-11-03T11:40:11.439Z,17.99
2022-11-03T11:42:58.062Z,18.53
2022-11-03T11:45:43.269Z,18.60
2022-11-03T11:48:19.309Z,18.57
2022-11-03T11:50:46.015Z,19.43
2022-11-03T11:53:14.076Z,19.00
2022-11-03T11:55:42.717Z,19.15
2022-11-03T11:58:14.623Z,19.78
2022-11-03T12:00:50.862Z,19.18
2022-11-03T12:03:20.194Z,19.11
2022-11-03T12:05:49.745Z,17.99
2022-11-03T12:08:21.210Z,17.55
2022-11-03T12:10:54.938Z,18.19
2022-11-03T12:13:36.543Z,17.50
2022-11-03T12:16:03.062Z,17.56
2022-11-03T12:18:31.152Z,17.53
2022-11-03T12:20:59.749Z,17.48
2022-11-03T12:23:37.375Z,17.12
2022-11-03T12:26:04.428Z,17.11
2022-11-03T12:28:32.312Z,17.45
2022-11-03T12:33:30.212Z,17.10
2022-11-03T12:35:57.169Z,17.26
2022-11-03T12:38:24.568Z,17.21
2022-11-03T12:40:51.316Z,16.74
2022-11-03T12:43:17.804Z,16.68
2022-11-03T12:45:44.297Z,16.94
2022-11-03T12:48:10.969Z,17.15
2022-11-03T12:50:39.206Z,17.28
2022-11-03T12:53:07.216Z,17.46
2022-11-03T12:55:35.831Z,17.39
2022-11-03T12:58:04.038Z,17.48
2022-11-03T13:00:30.727Z,17.32
2022-11-03T13:02:57.446Z,17.17
2022-11-03T13:05:25.496Z,17.22
2022-11-03T13:07:52.167Z,17.86
2022-11-03T13:10:18.681Z,17.86
2022-11-03T13:12:45.331Z,17.61
2022-11-03T13:15:13.506Z,18.06
2022-11-03T13:17:52.343Z,18.12
2022-11-03T13:20:27.536Z,18.14
2022-11-03T13:22:54.006Z,18.16
2022-11-03T13:25:20.636Z,18.20
2022-11-03T13:27:48.927Z,18.28
2022-11-03T13:30:15.506Z,18.07
2022-11-03T13:32:42.133Z,18.39
2022-11-03T13:35:13.708Z,17.92
2022-11-03T13:37:41.000Z,17.72
2022-11-03T13:40:08.191Z,17.72
2022-11-03T13:42:34.854Z,17.57
2022-11-03T13:45:01.628Z,17.48
2022-11-03T13:47:41.926Z,17.52
2022-11-03T13:50:15.375Z,17.51
2022-11-03T13:52:42.232Z,17.59
2022-11-03T14:00:45.012Z,17.63
2022-11-03T14:05:58.042Z,17.12
2022-11-03T14:08:24.484Z,17.06
2022-11-03T14:10:50.918Z,17.22
2022-11-03T14:13:17.393Z,17.27
2022-11-03T14:15:43.873Z,17.33
2022-11-03T14:18:10.358Z,16.95
2022-11-03T14:20:37.458Z,16.95
2022-11-03T14:23:04.175Z,17.08
2022-11-03T14:25:30.837Z,16.97
2022-11-03T14:27:57.438Z,17.08
2022-11-03T14:30:24.047Z,17.70
2022-11-03T14:32:51.685Z,17.63
2022-11-03T14:35:22.987Z,17.21
2022-11-03T14:37:49.467Z,17.04
2022-11-03T14:40:36.175Z,16.82
2022-11-03T14:43:02.636Z,16.99
2022-11-03T14:45:29.165Z,16.98
2022-11-03T14:47:55.671Z,16.93
2022-11-03T14:50:22.099Z,16.64
2022-11-03T14:52:48.535Z,16.72
2022-11-03T14:55:14.992Z,16.64
2022-11-03T14:57:41.482Z,16.66
2022-11-03T15:00:10.232Z,16.89
2022-11-03T15:02:37.089Z,16.74
2022-11-03T15:05:03.819Z,16.73
2022-11-03T15:07:30.455Z,16.89
2022-11-03T15:09:58.118Z,16.78
2022-11-03T15:12:24.596Z,16.77
2022-11-03T15:14:51.129Z,16.74
2022-11-03T15:17:17.616Z,16.56
2022-11-03T15:19:44.097Z,16.49
2022-11-03T15:22:10.620Z,16.04
2022-11-03T15:27:23.871Z,16.12
2022-11-03T15:29:50.405Z,16.12
2022-11-03T15:32:16.897Z,16.25
2022-11-03T15:34:43.372Z,16.17
2022-11-03T15:37:10.022Z,16.19
2022-11-03T15:39:36.522Z,16.04
2022-11-03T15:42:03.012Z,15.67
2022-11-03T15:44:29.440Z,15.70
2022-11-03T15:46:55.978Z,15.84
2022-11-03T15:49:22.423Z,15.90
2022-11-03T15:51:48.872Z,15.68
2022-11-03T15:54:15.377Z,15.56
2022-11-03T15:56:41.877Z,15.68
2022-11-03T15:59:08.453Z,15.69
2022-11-03T16:01:37.927Z,15.75
2022-11-03T16:04:04.500Z,15.64
2022-11-03T16:09:17.436Z,15.53
2022-11-03T16:11:43.897Z,15.33
2022-11-03T16:14:10.561Z,15.05
2022-11-03T16:16:37.040Z,14.62
2022-11-03T16:19:03.523Z,14.69
2022-11-03T16:21:30.008Z,14.87
2022-11-03T16:23:56.477Z,14.92
2022-11-03T16:26:24.199Z,14.87
2022-11-03T16:28:50.781Z,14.88
2022-11-03T16:31:17.221Z,14.77
2022-11-03T16:33:44.723Z,14.68
2022-11-03T16:36:11.252Z,14.57
2022-11-03T16:38:37.737Z,14.54
2022-11-03T16:41:04.248Z,14.54
2022-11-03T16:43:30.778Z,14.57
2022-11-03T16:45:57.258Z,14.50
2022-11-03T16:48:23.833Z,14.46
2022-11-03T16:50:54.189Z,14.46
2022-11-03T16:53:23.366Z,14.66
2022-11-03T16:55:50.145Z,14.66
2022-11-03T16:58:16.825Z,14.66
2022-11-03T17:00:43.313Z,14.60
2022-11-03T17:03:10.249Z,14.50
2022-11-03T17:05:36.816Z,14.39
2022-11-03T17:08:03.319Z,14.26
2022-11-03T17:10:31.970Z,14.33
2022-11-03T17:12:58.701Z,14.33
2022-11-03T17:15:25.180Z,14.22
2022-11-03T17:17:51.687Z,14.29
2022-11-03T17:20:18.698Z,14.23
2022-11-03T17:22:45.289Z,14.13
2022-11-03T17:25:12.156Z,14.24
2022-11-03T17:27:49.275Z,14.00
2022-11-03T17:30:20.221Z,14.00
2022-11-03T17:32:47.707Z,13.97
2022-11-03T17:35:19.033Z,13.87
2022-11-03T17:37:46.089Z,13.92
2022-11-03T17:40:17.045Z,13.99
2022-11-03T17:42:44.037Z,13.95
2022-11-03T17:45:17.405Z,13.93
2022-11-03T17:47:43.879Z,13.84
2022-11-03T17:50:13.733Z,13.83
2022-11-03T17:52:40.931Z,13.80
2022-11-03T17:55:15.641Z,13.62
2022-11-03T17:57:42.188Z,13.52
2022-11-03T18:00:14.551Z,13.51
2022-11-03T18:02:41.136Z,13.52
2022-11-03T18:05:27.128Z,13.46
2022-11-03T18:07:54.858Z,13.26
2022-11-03T18:10:28.912Z,13.27
2022-11-03T18:13:15.720Z,13.21
2022-11-03T18:16:02.463Z,13.35
2022-11-03T18:18:41.210Z,13.36
2022-11-03T18:21:11.292Z,13.27
2022-11-03T18:23:37.803Z,13.25
2022-11-03T18:26:13.399Z,13.15
2022-11-03T18:28:39.937Z,13.12
2022-11-03T18:31:13.437Z,13.19
2022-11-03T18:33:39.992Z,13.10
2022-11-03T18:36:06.949Z,12.87
2022-11-03T18:38:35.215Z,12.89
2022-11-03T18:41:01.861Z,12.95
2022-11-03T18:43:28.709Z,13.00
2022-11-03T18:45:55.165Z,12.87
2022-11-03T18:48:21.785Z,12.87
2022-11-03T18:50:53.130Z,12.83
2022-11-03T18:53:20.825Z,12.89
2022-11-03T18:55:47.540Z,12.95
2022-11-03T18:58:18.034Z,12.91
2022-11-03T19:00:44.721Z,13.05
2022-11-03T19:03:18.255Z,13.01
2022-11-03T19:05:45.668Z,12.97
2022-11-03T19:08:32.454Z,12.96
2022-11-03T19:11:04.070Z,13.16
2022-11-03T19:13:36.403Z,13.24
2022-11-03T19:16:07.830Z,13.11
2022-11-03T19:18:35.539Z,13.03
2022-11-03T19:21:02.223Z,13.10
2022-11-03T19:23:28.865Z,12.76
2022-11-03T19:25:58.598Z,12.81
2022-11-03T19:28:25.989Z,12.90
2022-11-03T19:30:57.618Z,13.18
2022-11-03T19:33:25.577Z,13.07
2022-11-03T19:35:52.234Z,13.04
2022-11-03T19:38:19.117Z,12.95
2022-11-03T19:41:04.753Z,12.84
2022-11-03T19:43:34.579Z,12.93
2022-11-03T19:46:02.208Z,13.00
2022-11-03T19:48:31.459Z,12.95
2022-11-03T19:50:58.378Z,12.94
2022-11-03T19:53:26.574Z,12.89
2022-11-03T19:55:53.445Z,12.75
2022-11-03T19:58:29.464Z,12.74
2022-11-03T20:00:56.404Z,12.69
2022-11-03T20:03:23.955Z,12.59
2022-11-03T20:05:54.677Z,12.69
2022-11-03T20:08:22.628Z,12.57
2022-11-03T20:10:49.649Z,12.28
2022-11-03T20:13:17.814Z,12.36
2022-11-03T20:15:44.260Z,12.35
2022-11-03T20:18:14.382Z,12.15
2022-11-03T20:20:42.420Z,12.32
2022-11-03T20:23:18.213Z,12.33
2022-11-03T20:25:44.756Z,12.33
2022-11-03T20:28:20.673Z,12.38
2022-11-03T20:30:47.806Z,12.36
2022-11-03T20:33:15.846Z,12.36
2022-11-03T20:35:42.831Z,12.35
2022-11-03T20:38:10.831Z,12.30
2022-11-03T20:40:37.789Z,12.47
2022-11-03T20:43:04.648Z,12.54
2022-11-03T20:45:31.439Z,12.60
2022-11-03T20:47:58.167Z,12.59
2022-11-03T20:50:25.125Z,12.52
2022-11-03T20:52:52.700Z,12.57
2022-11-03T20:55:20.884Z,12.35
2022-11-03T20:57:47.857Z,12.40
2022-11-03T21:00:15.845Z,12.20
2022-11-03T21:02:42.808Z,12.30
2022-11-03T21:05:20.262Z,12.34
2022-11-03T21:07:47.000Z,12.26
2022-11-03T21:10:19.291Z,12.10
2022-11-03T21:12:46.978Z,11.99
2022-11-03T21:15:36.276Z,11.89
2022-11-03T21:18:21.473Z,12.07
2022-11-03T21:20:48.002Z,12.13
2022-11-03T21:23:22.840Z,11.92
2022-11-03T21:25:49.567Z,11.73
2022-11-03T21:28:16.502Z,11.63
2022-11-03T21:30:43.273Z,11.64
2022-11-03T21:33:10.236Z,11.59
2022-11-03T21:35:36.952Z,11.50
2022-11-03T21:38:03.694Z,11.64
2022-11-03T21:40:30.432Z,11.53
2022-11-03T21:43:15.619Z,11.63
2022-11-03T21:45:42.385Z,11.64
2022-11-03T21:48:27.537Z,11.55
2022-11-03T21:50:54.096Z,11.38
2022-11-03T21:53:20.600Z,11.43
2022-11-03T21:55:48.402Z,11.40
2022-11-03T21:58:15.380Z,11.45
2022-11-03T22:00:41.935Z,11.53
2022-11-03T22:03:08.785Z,11.49
2022-11-03T22:05:35.559Z,11.46
2022-11-03T22:08:02.135Z,11.57
2022-11-03T22:10:28.778Z,11.55
2022-11-03T22:12:55.252Z,11.53
2022-11-03T22:15:40.456Z,11.54
2022-11-03T22:18:07.479Z,11.53
2022-11-03T22:20:54.316Z,11.59
2022-11-03T22:23:39.191Z,11.44
2022-11-03T22:26:24.138Z,11.45
2022-11-03T22:29:10.546Z,11.42
2022-11-03T22:31:42.856Z,11.46
2022-11-03T22:34:28.175Z,11.47
2022-11-03T22:36:54.639Z,11.46
2022-11-03T22:39:39.771Z,11.40
2022-11-03T22:42:24.897Z,11.37
2022-11-03T22:45:09.838Z,11.41
2022-11-03T22:47:36.345Z,11.50
2022-11-03T22:50:02.826Z,11.57
2022-11-03T22:52:29.520Z,11.54
2022-11-03T22:54:55.981Z,11.43
2022-11-03T22:57:22.431Z,11.56
2022-11-03T22:59:48.942Z,11.64
2022-11-03T23:02:15.493Z,11.56
2022-11-03T23:04:42.066Z,11.64
2022-11-03T23:07:08.504Z,11.70
2022-11-03T23:09:35.302Z,11.47
2022-11-03T23:12:01.777Z,11.35
2022-11-03T23:14:48.208Z,11.41
2022-11-03T23:17:14.661Z,11.45
2022-11-03T23:19:59.839Z,11.57
2022-11-03T23:22:26.330Z,11.59
2022-11-03T23:25:01.689Z,11.68
2022-11-03T23:27:28.336Z,11.60
2022-11-03T23:29:55.038Z,11.44
2022-11-03T23:32:21.507Z,11.33
2022-11-03T23:34:48.030Z,11.24
2022-11-03T23:37:14.582Z,11.29
2022-11-03T23:39:41.039Z,11.22
2022-11-03T23:42:07.763Z,11.22
2022-11-03T23:44:54.341Z,11.35
2022-11-03T23:47:59.233Z,11.68
2022-11-03T23:50:27.169Z,11.59
2022-11-03T23:52:53.613Z,11.48
2022-11-03T23:55:20.058Z,11.50
2022-11-03T23:58:05.273Z,11.49
